Time;durP1;ratioP1;P1;durP2;ratioP2;P2;SDS_P1;SDS_P2;PMS_P1;PMS_P2;Temp;Humidity;BMP_temperature;BMP_pressure;BME280_temperature;BME280_humidity;BME280_pressure;Samples;Min_cycle;Max_cycle;Signal;HPM_P1;HPM_P2
2022/12/15 00:38:43;;;;;;;25.92;14.27;;;;;;;-3.24;100.00;100498.25;4976959;28;20037;-83
2022/12/15 00:41:10;;;;;;;26.65;13.32;;;;;;;-3.31;100.00;100493.16;4976578;28;20038;-83
2022/12/15 00:43:35;;;;;;;21.23;13.32;;;;;;;-3.39;100.00;100493.00;4984339;28;20038;-82
2022/12/15 00:48:46;;;;;;;25.30;13.05;;;;;;;-3.23;100.00;100505.34;4980801;28;20036;-82
2022/12/15 00:51:12;;;;;;;24.45;13.82;;;;;;;-3.51;100.00;100483.28;4978990;28;20027;-83
2022/12/15 01:21:07;;;;;;;21.73;12.35;;;;;;;-3.32;100.00;100524.34;4983370;28;20056;-83
2022/12/15 01:23:33;;;;;;;25.80;12.98;;;;;;;-3.44;100.00;100520.41;4960801;28;20077;-83
2022/12/15 01:25:59;;;;;;;28.45;13.77;;;;;;;-3.42;100.00;100519.00;4977112;28;20030;-83
2022/12/15 01:28:24;;;;;;;28.80;14.77;;;;;;;-3.25;100.00;100523.97;4975748;28;20046;-83
2022/12/15 01:30:50;;;;;;;20.48;13.02;;;;;;;-3.32;100.00;100529.00;4967318;28;20040;-83
2022/12/15 01:33:17;;;;;;;25.60;13.20;;;;;;;-3.32;100.00;100526.28;4969090;28;20038;-83
2022/12/15 01:35:42;;;;;;;21.00;11.73;;;;;;;-3.31;100.00;100519.69;4988106;28;20038;-83
2022/12/15 01:38:09;;;;;;;20.80;11.93;;;;;;;-3.07;100.00;100541.56;4969260;28;20053;-83
2022/12/15 01:40:44;;;;;;;20.55;11.90;;;;;;;-3.36;100.00;100527.97;4968573;28;20034;-83
2022/12/15 01:43:31;;;;;;;20.95;13.45;;;;;;;-3.28;100.00;100535.53;4983421;28;20036;-83
2022/12/15 01:45:59;;;;;;;23.80;12.40;;;;;;;-3.29;100.00;100537.47;4986519;28;20165;-82
2022/12/15 01:48:41;;;;;;;24.27;11.45;;;;;;;-3.17;100.00;100542.50;4963388;28;21618;-83
2022/12/15 01:51:17;;;;;;;19.77;11.33;;;;;;;-3.22;100.00;100539.84;4986668;28;20026;-83
2022/12/15 01:54:12;;;;;;;17.80;10.45;;;;;;;-3.23;100.00;100543.66;4960539;28;20030;-83
2022/12/15 01:56:43;;;;;;;17.77;11.25;;;;;;;-3.15;100.00;100543.00;4979929;28;20554;-83
2022/12/15 01:59:14;;;;;;;21.95;12.90;;;;;;;-3.28;100.00;100552.75;4980561;28;20041;-84
2022/12/15 02:01:39;;;;;;;27.15;12.45;;;;;;;-3.26;100.00;100549.75;4978202;28;22146;-83
2022/12/15 02:04:07;;;;;;;23.67;12.82;;;;;;;-3.26;100.00;100538.78;4983992;28;20037;-83
2022/12/15 02:06:33;;;;;;;21.67;11.80;;;;;;;-3.22;100.00;100548.03;4963203;28;20394;-83
2022/12/15 02:08:59;;;;;;;20.98;12.43;;;;;;;-3.19;100.00;100554.84;4981606;28;20037;-82
2022/12/15 02:11:34;;;;;;;21.98;13.07;;;;;;;-3.11;100.00;100555.00;4964671;28;20529;-83
2022/12/15 02:14:05;;;;;;;22.33;11.93;;;;;;;-3.22;100.00;100549.97;4966256;28;20148;-83
2022/12/15 02:16:46;;;;;;;20.60;11.32;;;;;;;-3.21;100.00;100546.13;4968173;28;20042;-82
2022/12/15 02:19:35;;;;;;;26.45;12.73;;;;;;;-3.25;100.00;100556.03;4960137;28;20807;-82
2022/12/15 02:22:19;;;;;;;22.80;12.27;;;;;;;-3.32;100.00;100545.44;4982073;28;20038;-83
2022/12/15 02:25:09;;;;;;;19.90;11.38;;;;;;;-3.38;100.00;100549.34;4977958;28;20502;-83
2022/12/15 02:27:44;;;;;;;23.45;11.82;;;;;;;-3.26;100.00;100555.22;4962866;28;20129;-83
2022/12/15 02:30:19;;;;;;;25.02;13.43;;;;;;;-3.21;100.00;100551.59;4979456;28;20405;-83
2022/12/15 02:33:04;;;;;;;23.83;12.05;;;;;;;-3.21;100.00;100557.88;4963712;28;20630;-83
2022/12/15 02:35:54;;;;;;;22.08;11.43;;;;;;;-3.24;100.00;100563.94;4982335;28;20716;-83
2022/12/15 02:38:35;;;;;;;25.20;12.80;;;;;;;-3.19;100.00;100565.81;4984267;28;20037;-82
2022/12/15 02:41:02;;;;;;;21.38;11.88;;;;;;;-3.35;100.00;100556.94;4979930;28;20568;-83
2022/12/15 02:43:30;;;;;;;24.52;12.30;;;;;;;-3.05;100.00;100565.91;4964136;28;20182;-83
2022/12/15 02:46:30;;;;;;;23.50;12.07;;;;;;;-3.26;100.00;100557.94;4979013;28;20089;-83
2022/12/15 02:49:12;;;;;;;23.08;11.50;;;;;;;-3.17;100.00;100567.13;4982042;28;20037;-82
2022/12/15 02:52:22;;;;;;;20.40;11.27;;;;;;;-3.12;100.00;100561.59;4966672;28;20387;-83
2022/12/15 02:55:10;;;;;;;20.58;10.98;;;;;;;-3.31;100.00;100560.72;4880997;29;20104;-83
2022/12/15 02:58:07;;;;;;;28.05;13.57;;;;;;;-3.03;100.00;100560.97;4877483;29;20037;-83
2022/12/15 03:00:38;;;;;;;17.33;12.00;;;;;;;-3.13;100.00;100565.44;4961521;28;20533;-83
2022/12/15 03:03:04;;;;;;;22.33;12.80;;;;;;;-3.20;100.00;100565.00;4978149;28;20042;-83
2022/12/15 03:05:31;;;;;;;24.05;11.68;;;;;;;-3.20;100.00;100556.78;4966234;28;21341;-83
2022/12/15 03:07:56;;;;;;;18.40;12.15;;;;;;;-3.09;100.00;100555.53;4983531;28;20026;-82
2022/12/15 03:10:24;;;;;;;28.25;11.70;;;;;;;-3.07;100.00;100572.47;4963758;28;20076;-83
2022/12/15 03:12:50;;;;;;;21.73;12.27;;;;;;;-3.25;100.00;100578.72;4981346;28;20524;-83
2022/12/15 03:15:16;;;;;;;21.77;11.85;;;;;;;-3.36;100.00;100580.78;4961591;28;20057;-83
2022/12/15 03:17:41;;;;;;;21.25;12.38;;;;;;;-3.40;100.00;100559.75;4978712;28;20046;-83
2022/12/15 03:20:08;;;;;;;20.10;11.25;;;;;;;-3.34;100.00;100570.34;4977676;28;20036;-82
2022/12/15 03:22:35;;;;;;;22.33;12.80;;;;;;;-3.35;100.00;100574.22;4969100;28;20037;-83
2022/12/15 03:25:00;;;;;;;18.50;12.27;;;;;;;-3.56;100.00;100559.13;4981707;28;20023;-83
2022/12/15 03:27:25;;;;;;;26.05;12.68;;;;;;;-3.41;100.00;100564.44;4962089;28;20049;-83
2022/12/15 03:29:51;;;;;;;29.20;11.18;;;;;;;-3.21;100.00;100579.78;4982420;28;20035;-83
2022/12/15 03:32:16;;;;;;;19.63;11.27;;;;;;;-3.22;100.00;100580.09;4965428;28;20121;-83
2022/12/15 03:34:41;;;;;;;23.25;13.75;;;;;;;-3.35;100.00;100574.22;4980183;28;20026;-83
2022/12/15 03:37:07;;;;;;;21.20;11.45;;;;;;;-3.24;100.00;100585.03;4966869;28;20153;-83
2022/12/15 03:39:32;;;;;;;23.42;13.23;;;;;;;-3.22;100.00;100577.34;4967529;28;20061;-83
2022/12/15 03:41:58;;;;;;;25.90;12.77;;;;;;;-3.28;100.00;100591.09;4983788;28;20038;-83
2022/12/15 03:44:23;;;;;;;21.60;12.07;;;;;;;-3.16;100.00;100585.19;4966115;28;20083;-83
2022/12/15 03:46:48;;;;;;;17.95;10.40;;;;;;;-3.30;100.00;100567.84;4962326;28;20034;-83
2022/12/15 03:49:14;;;;;;;20.65;11.65;;;;;;;-3.18;100.00;100579.19;4961934;28;20180;-84
2022/12/15 03:51:39;;;;;;;21.20;11.27;;;;;;;-3.28;100.00;100573.84;4961529;28;20113;-83
2022/12/15 03:54:06;;;;;;;22.05;11.85;;;;;;;-3.21;100.00;100577.03;4963675;28;20048;-83
2022/12/15 03:56:31;;;;;;;21.05;11.98;;;;;;;-3.19;100.00;100588.50;4962265;28;20038;-83
2022/12/15 03:58:57;;;;;;;20.85;11.93;;;;;;;-3.40;100.00;100574.25;4966982;28;20127;-83
2022/12/15 04:01:26;;;;;;;20.10;11.65;;;;;;;-3.27;100.00;100586.41;4968301;28;20125;-83
2022/12/15 04:03:52;;;;;;;22.58;12.07;;;;;;;-3.09;100.00;100591.13;4957144;28;20073;-83
2022/12/15 04:06:17;;;;;;;22.95;12.40;;;;;;;-3.34;100.00;100589.50;4982589;28;20490;-83
2022/12/15 04:08:42;;;;;;;21.27;11.20;;;;;;;-3.39;100.00;100586.03;4966368;28;20391;-84
2022/12/15 04:11:08;;;;;;;24.25;11.07;;;;;;;-3.22;100.00;100591.84;4986418;28;20041;-83
2022/12/15 04:13:33;;;;;;;17.63;10.38;;;;;;;-3.10;100.00;100574.97;4985136;28;20038;-83
2022/12/15 04:16:01;;;;;;;19.77;10.93;;;;;;;-3.14;100.00;100593.94;4985475;28;20053;-82
2022/12/15 04:18:26;;;;;;;22.92;10.68;;;;;;;-2.99;100.00;100573.75;4966463;28;20030;-83
2022/12/15 04:20:51;;;;;;;21.27;11.65;;;;;;;-2.95;100.00;100583.00;4982852;28;20504;-82
2022/12/15 04:23:17;;;;;;;21.20;10.73;;;;;;;-3.06;100.00;100584.25;4967179;28;20105;-83
2022/12/15 05:31:51;;;;;;;19.33;10.55;;;;;;;-3.04;100.00;100600.38;4983014;28;20041;-83
2022/12/15 05:34:33;;;;;;;15.95;9.55;;;;;;;-2.68;100.00;100612.50;4965965;28;20521;-84
2022/12/15 05:37:00;;;;;;;18.73;10.50;;;;;;;-2.88;100.00;100621.00;4969025;28;20513;-83
2022/12/15 05:39:26;;;;;;;14.27;8.90;;;;;;;-2.69;100.00;100613.59;4964301;28;20056;-84
2022/12/15 05:41:53;;;;;;;15.60;10.52;;;;;;;-2.74;100.00;100618.31;4986663;28;20034;-83
2022/12/15 05:44:19;;;;;;;21.80;11.10;;;;;;;-2.61;100.00;100611.28;4983796;28;20394;-83
2022/12/15 05:46:44;;;;;;;18.90;11.65;;;;;;;-2.83;100.00;100609.97;4982808;28;20030;-83
2022/12/15 05:49:14;;;;;;;16.98;10.93;;;;;;;-2.69;100.00;100621.81;4977497;28;20483;-83
2022/12/15 05:51:41;;;;;;;20.30;11.00;;;;;;;-2.67;100.00;100608.63;4976650;28;20109;-83
2022/12/15 05:54:08;;;;;;;20.70;11.70;;;;;;;-2.59;100.00;100606.34;4974505;28;20030;-83
2022/12/15 05:56:35;;;;;;;18.17;10.45;;;;;;;-2.59;100.00;100617.28;4961662;28;20026;-83
2022/12/15 05:59:00;;;;;;;16.48;9.75;;;;;;;-2.66;100.00;100618.50;4962432;28;20041;-82
2022/12/15 06:01:27;;;;;;;19.27;10.32;;;;;;;-2.69;100.00;100627.31;4971833;28;20050;-84
2022/12/15 06:03:52;;;;;;;18.75;10.43;;;;;;;-2.70;100.00;100633.91;4972701;28;20597;-83
2022/12/15 06:06:19;;;;;;;18.42;10.65;;;;;;;-2.66;100.00;100639.59;4956659;28;20023;-83
2022/12/15 06:08:44;;;;;;;16.08;9.25;;;;;;;-2.56;100.00;100646.88;4978730;28;20473;-83
2022/12/15 06:11:14;;;;;;;16.55;9.23;;;;;;;-2.55;100.00;100643.00;4978281;28;20041;-83
2022/12/15 06:13:40;;;;;;;17.23;10.02;;;;;;;-2.56;100.00;100641.38;4973121;28;20558;-83
2022/12/15 06:16:11;;;;;;;18.50;10.07;;;;;;;-2.69;100.00;100630.03;4959069;28;20045;-83
2022/12/15 06:18:39;;;;;;;16.55;9.52;;;;;;;-2.59;100.00;100644.69;4967008;28;20080;-83
2022/12/15 06:21:11;;;;;;;15.38;8.55;;;;;;;-2.50;100.00;100638.28;4960008;28;20034;-83
2022/12/15 06:23:36;;;;;;;16.48;9.40;;;;;;;-2.63;100.00;100621.75;4981718;28;20037;-83
2022/12/15 06:26:26;;;;;;;16.00;9.93;;;;;;;-2.47;100.00;100650.56;4964845;28;20034;-83
2022/12/15 06:28:54;;;;;;;17.17;8.98;;;;;;;-2.51;100.00;100647.63;4980759;28;20042;-84
2022/12/15 06:31:24;;;;;;;15.38;8.80;;;;;;;-2.52;100.00;100653.38;4979668;28;20085;-83
2022/12/15 06:33:50;;;;;;;19.42;10.23;;;;;;;-2.56;100.00;100655.09;4975830;28;20464;-83
2022/12/15 06:36:16;;;;;;;15.48;9.52;;;;;;;-2.48;100.00;100651.69;4964271;28;20029;-83
2022/12/15 06:38:42;;;;;;;17.40;10.45;;;;;;;-2.68;100.00;100642.66;4977963;28;20160;-83
2022/12/15 06:41:09;;;;;;;13.57;8.52;;;;;;;-2.59;100.00;100633.75;4957561;28;20052;-83
2022/12/15 06:43:34;;;;;;;11.55;7.40;;;;;;;-2.47;100.00;100645.91;4981177;28;20031;-83
2022/12/15 06:46:00;;;;;;;18.25;9.27;;;;;;;-2.46;100.00;100646.72;4963803;28;20049;-83
2022/12/15 06:48:26;;;;;;;13.43;7.70;;;;;;;-2.50;100.00;100648.44;4962666;28;20030;-84
2022/12/15 06:50:52;;;;;;;12.00;7.80;;;;;;;-2.47;100.00;100648.66;4977490;28;20545;-83
2022/12/15 06:53:20;;;;;;;19.63;9.52;;;;;;;-2.45;100.00;100656.56;4969286;28;20035;-83
2022/12/15 06:55:46;;;;;;;17.92;9.30;;;;;;;-2.44;100.00;100657.41;4962558;28;20041;-83
2022/12/15 06:58:12;;;;;;;17.52;9.38;;;;;;;-2.48;100.00;100662.66;4981633;28;20034;-83
2022/12/15 07:00:39;;;;;;;19.35;8.57;;;;;;;-2.43;100.00;100659.81;4985221;28;20596;-83
2022/12/15 07:03:12;;;;;;;15.75;8.50;;;;;;;-2.32;100.00;100661.31;4960816;28;20030;-84
2022/12/15 07:05:37;;;;;;;13.73;7.65;;;;;;;-2.37;100.00;100660.56;4983205;28;20038;-83
2022/12/15 07:08:03;;;;;;;13.18;7.57;;;;;;;-2.45;100.00;100656.56;4952927;28;20473;-84
2022/12/15 07:10:28;;;;;;;16.13;10.10;;;;;;;-1.45;100.00;100662.63;4964517;28;20440;-81
2022/12/15 07:12:57;;;;;;;16.33;8.73;;;;;;;0.40;100.00;100664.09;4965019;28;20033;-78
2022/12/15 07:15:23;;;;;;;19.02;9.02;;;;;;;-0.12;99.71;100659.06;4982444;28;20043;-78
2022/12/15 07:17:49;;;;;;;10.45;7.00;;;;;;;-1.38;100.00;100667.72;4983680;28;20038;-80
2022/12/15 07:20:15;;;;;;;17.60;7.38;;;;;;;-1.67;100.00;100671.50;4984622;28;20049;-77
2022/12/15 07:22:40;;;;;;;16.55;7.78;;;;;;;-1.87;100.00;100672.69;4984569;28;20566;-79
2022/12/15 07:25:07;;;;;;;14.52;7.65;;;;;;;-2.02;100.00;100686.66;4981022;28;20034;-78
2022/12/15 07:27:32;;;;;;;12.93;6.95;;;;;;;-2.00;100.00;100683.59;4983627;28;20034;-78
2022/12/15 07:29:57;;;;;;;13.88;7.68;;;;;;;-2.10;100.00;100679.09;4978823;28;20112;-79
2022/12/15 07:32:22;;;;;;;13.88;8.45;;;;;;;-2.00;100.00;100680.84;4980680;28;20041;-78
2022/12/15 07:34:48;;;;;;;18.17;8.25;;;;;;;-2.07;100.00;100678.47;4981824;28;20034;-78
2022/12/15 07:37:14;;;;;;;15.43;7.35;;;;;;;-2.02;100.00;100681.16;4983784;28;20030;-78
2022/12/15 07:39:40;;;;;;;12.27;8.02;;;;;;;-2.02;100.00;100686.66;4985582;28;20053;-78
2022/12/15 07:42:05;;;;;;;14.63;6.90;;;;;;;-2.03;100.00;100686.94;4981130;28;20034;-79
2022/12/15 07:44:31;;;;;;;16.00;7.88;;;;;;;-0.45;100.00;100684.00;4980350;28;20026;-79
2022/12/15 07:46:56;;;;;;;15.30;6.95;;;;;;;0.60;100.00;100691.13;4977841;28;20018;-78
2022/12/15 07:49:22;;;;;;;20.17;7.88;;;;;;;-0.74;100.00;100681.56;4973543;28;20418;-79
2022/12/15 07:51:47;;;;;;;16.15;6.85;;;;;;;-1.31;100.00;100684.59;4981354;28;20030;-79
2022/12/15 07:54:13;;;;;;;14.02;6.75;;;;;;;-1.51;100.00;100696.78;4967665;28;20034;-79
2022/12/15 07:56:39;;;;;;;15.82;7.45;;;;;;;-1.59;100.00;100705.69;4984288;28;20372;-79
2022/12/15 07:59:06;;;;;;;13.38;6.95;;;;;;;-1.72;100.00;100701.81;4965472;28;20041;-79
2022/12/15 08:01:31;;;;;;;14.25;7.82;;;;;;;-1.75;100.00;100707.06;4967189;28;20636;-79
2022/12/15 08:03:57;;;;;;;13.63;7.75;;;;;;;-1.74;100.00;100711.44;4983915;28;20026;-79
2022/12/15 08:06:23;;;;;;;11.80;7.20;;;;;;;-1.61;100.00;100701.63;4986069;28;20030;-79
2022/12/15 08:08:49;;;;;;;17.42;8.00;;;;;;;-1.73;100.00;100702.09;4968065;28;20034;-79
2022/12/15 08:11:15;;;;;;;14.48;8.10;;;;;;;-1.73;100.00;100722.13;4985030;28;20652;-79
2022/12/15 08:13:42;;;;;;;12.98;7.30;;;;;;;-1.67;100.00;100720.09;4983919;28;20119;-79
2022/12/15 08:16:08;;;;;;;13.32;7.05;;;;;;;-1.67;100.00;100709.13;4983738;28;21118;-79
2022/12/15 08:18:33;;;;;;;12.00;6.63;;;;;;;-1.61;100.00;100716.16;4982272;28;20068;-79
2022/12/15 08:21:03;;;;;;;11.07;6.47;;;;;;;-1.62;100.00;100706.31;4985392;28;20118;-80
2022/12/15 08:23:30;;;;;;;12.98;7.05;;;;;;;-1.54;100.00;100719.34;4969397;28;20034;-79
2022/12/15 08:26:02;;;;;;;13.68;6.85;;;;;;;-1.67;100.00;100715.44;4984615;28;20058;-79
2022/12/15 08:28:27;;;;;;;10.10;7.05;;;;;;;-1.72;100.00;100714.72;4987879;28;20038;-79
2022/12/15 08:30:52;;;;;;;11.80;6.05;;;;;;;-1.60;100.00;100723.31;4967588;28;20485;-79
2022/12/15 08:33:18;;;;;;;10.25;5.57;;;;;;;-1.56;100.00;100731.72;4982085;28;20034;-79
2022/12/15 08:35:43;;;;;;;14.60;7.65;;;;;;;-1.60;100.00;100725.22;4985193;28;20027;-79
2022/12/15 08:38:08;;;;;;;14.77;6.25;;;;;;;-1.54;100.00;100735.00;4981811;28;20049;-79
2022/12/15 08:40:34;;;;;;;16.67;7.20;;;;;;;-1.50;100.00;100725.03;4965423;28;20026;-79
2022/12/15 08:42:59;;;;;;;16.33;7.68;;;;;;;-1.57;100.00;100733.66;4983349;28;20030;-79
2022/12/15 08:45:25;;;;;;;15.90;7.63;;;;;;;-1.50;100.00;100745.06;4982269;28;20027;-79
2022/12/15 08:47:50;;;;;;;13.80;7.20;;;;;;;-1.51;100.00;100740.69;4983176;28;20057;-79
2022/12/15 08:50:16;;;;;;;17.05;8.88;;;;;;;-1.68;100.00;100748.69;4983877;28;20032;-79
2022/12/15 08:52:41;;;;;;;14.55;9.93;;;;;;;-1.41;100.00;100744.38;4983299;28;20037;-79
2022/12/15 08:55:10;;;;;;;18.88;8.25;;;;;;;-1.45;100.00;100755.97;4984768;28;20396;-79
2022/12/15 08:57:36;;;;;;;17.23;9.98;;;;;;;-1.52;100.00;100750.06;4985471;28;20030;-79
2022/12/15 09:00:03;;;;;;;16.00;8.75;;;;;;;-1.49;100.00;100752.19;4984769;28;20030;-79
2022/12/15 09:02:29;;;;;;;17.40;10.35;;;;;;;-1.58;100.00;100745.78;4982883;28;20031;-79
2022/12/15 09:04:54;;;;;;;18.38;10.00;;;;;;;-1.34;100.00;100755.81;4968303;28;20045;-79
2022/12/15 09:07:20;;;;;;;15.35;9.10;;;;;;;-1.58;100.00;100745.78;4985611;28;20041;-80
2022/12/15 09:09:45;;;;;;;15.35;8.65;;;;;;;-1.51;100.00;100751.69;4981375;28;20386;-79
2022/12/15 09:12:11;;;;;;;15.98;9.40;;;;;;;-1.55;100.00;100739.66;4979222;28;20037;-79
2022/12/15 09:14:36;;;;;;;18.73;9.32;;;;;;;-1.47;100.00;100752.72;4981280;28;20043;-80
2022/12/15 09:17:02;;;;;;;16.10;9.95;;;;;;;-1.29;100.00;100752.97;4985189;28;20378;-79
2022/12/15 09:19:27;;;;;;;16.88;10.02;;;;;;;-1.21;100.00;100765.19;4968048;28;20473;-80
2022/12/15 09:21:53;;;;;;;14.02;8.25;;;;;;;-1.13;100.00;100750.78;4982241;28;20042;-79
2022/12/15 09:24:18;;;;;;;14.95;9.43;;;;;;;-0.98;100.00;100755.97;4981243;28;20026;-78
2022/12/15 09:26:44;;;;;;;17.50;10.30;;;;;;;-0.94;100.00;100753.44;4961879;28;20020;-79
2022/12/15 09:29:11;;;;;;;21.25;9.73;;;;;;;-1.11;100.00;100749.34;4983204;28;20121;-79
2022/12/15 09:31:37;;;;;;;15.63;9.43;;;;;;;-0.91;100.00;100755.56;4979738;28;20030;-80
2022/12/15 09:34:03;;;;;;;17.52;9.38;;;;;;;-0.87;100.00;100745.59;4982521;28;20030;-79
2022/12/15 09:36:31;;;;;;;18.15;9.90;;;;;;;-0.88;100.00;100757.72;4978606;28;20053;-80
2022/12/15 09:38:57;;;;;;;19.33;9.60;;;;;;;-0.72;100.00;100767.28;4980606;28;20054;-79
2022/12/15 09:41:27;;;;;;;20.13;9.90;;;;;;;-0.90;100.00;100760.78;4980516;28;20038;-79
2022/12/15 09:44:11;;;;;;;17.75;10.35;;;;;;;-0.70;100.00;100770.56;4979501;28;20438;-79
2022/12/15 09:46:59;;;;;;;16.88;10.32;;;;;;;-0.70;100.00;100767.81;4982264;28;20034;-79
2022/12/15 09:49:40;;;;;;;18.15;10.23;;;;;;;-0.63;100.00;100768.22;4981543;28;20091;-79
2022/12/15 09:52:13;;;;;;;13.70;9.27;;;;;;;-0.76;100.00;100773.72;4984351;28;20030;-79
2022/12/15 09:54:42;;;;;;;15.80;9.77;;;;;;;-0.64;100.00;100766.59;4982759;28;20506;-79
2022/12/15 09:57:32;;;;;;;16.85;10.25;;;;;;;-0.50;100.00;100771.28;4982531;28;20507;-79
2022/12/15 10:00:14;;;;;;;21.20;10.90;;;;;;;-0.51;100.00;100764.16;4987880;28;20030;-78
2022/12/15 10:02:43;;;;;;;21.27;11.97;;;;;;;-0.46;100.00;100762.13;4988112;28;20026;-79
2022/12/15 10:05:22;;;;;;;17.23;10.07;;;;;;;-0.46;100.00;100759.38;4987911;28;20109;-79
2022/12/15 10:07:49;;;;;;;23.42;12.82;;;;;;;-0.45;100.00;100765.66;4980908;28;20104;-79
2022/12/15 10:10:24;;;;;;;25.35;12.30;;;;;;;-0.47;100.00;100762.41;4964399;28;20023;-79
2022/12/15 10:12:55;;;;;;;20.40;11.88;;;;;;;-0.39;100.00;100761.69;4993228;28;20038;-79
2022/12/15 10:15:27;;;;;;;20.42;12.45;;;;;;;-0.49;100.00;100767.41;4986900;28;20045;-79
2022/12/15 10:18:16;;;;;;;23.00;11.98;;;;;;;-0.21;100.00;100760.78;4985745;28;20041;-79
2022/12/15 10:20:42;;;;;;;20.05;11.63;;;;;;;-0.17;100.00;100768.38;4987443;28;20057;-79
2022/12/15 10:23:16;;;;;;;20.00;11.40;;;;;;;-0.16;100.00;100767.28;4987613;28;20026;-79
2022/12/15 10:25:49;;;;;;;20.38;12.63;;;;;;;-0.12;100.00;100765.53;4988551;28;20108;-79
2022/12/15 10:28:23;;;;;;;19.63;11.05;;;;;;;-0.09;100.00;100773.16;4989091;28;20105;-79
2022/12/15 10:31:18;;;;;;;20.05;10.52;;;;;;;-0.03;100.00;100771.94;4979706;28;20030;-79
2022/12/15 10:33:52;;;;;;;20.35;10.50;;;;;;;0.01;100.00;100774.91;4980361;28;20085;-80
2022/12/15 10:36:17;;;;;;;21.13;11.18;;;;;;;0.00;100.00;100782.34;4981906;28;20113;-79
2022/12/15 10:38:46;;;;;;;16.77;10.65;;;;;;;0.15;100.00;100779.25;4985893;28;20166;-79
2022/12/15 10:41:14;;;;;;;22.50;12.18;;;;;;;0.32;100.00;100780.53;4985353;28;20476;-80
2022/12/15 10:43:42;;;;;;;21.35;10.63;;;;;;;0.30;100.00;100777.25;4986873;28;20081;-79
2022/12/15 10:46:07;;;;;;;20.58;10.77;;;;;;;0.29;100.00;100790.19;4980785;28;20082;-78
2022/12/15 10:48:33;;;;;;;17.38;10.68;;;;;;;0.32;100.00;100775.00;4986478;28;20857;-79
2022/12/15 10:51:25;;;;;;;19.33;12.23;;;;;;;0.33;100.00;100773.88;4968897;28;20126;-79
2022/12/15 10:53:52;;;;;;;16.38;11.00;;;;;;;0.52;100.00;100791.03;4978094;28;20474;-79
2022/12/15 10:56:28;;;;;;;20.60;11.90;;;;;;;0.49;100.00;100788.91;4989998;28;20494;-79
2022/12/15 10:58:56;;;;;;;25.33;12.05;;;;;;;0.51;100.00;100786.66;4984172;28;20049;-79
2022/12/15 11:01:33;;;;;;;27.90;13.38;;;;;;;0.43;100.00;100781.91;4979222;28;20030;-79
2022/12/15 11:03:58;;;;;;;23.35;14.70;;;;;;;0.53;100.00;100776.16;4987627;28;20077;-80
2022/12/15 11:06:35;;;;;;;20.92;12.45;;;;;;;0.52;100.00;100771.75;4984188;28;20027;-79
2022/12/15 11:09:30;;;;;;;21.20;11.85;;;;;;;0.52;100.00;100776.44;4989172;28;20041;-78
2022/12/15 11:14:46;;;;;;;18.75;11.68;;;;;;;0.70;100.00;100760.88;4987030;28;20532;-79
2022/12/15 11:17:40;;;;;;;22.42;11.63;;;;;;;0.63;100.00;100766.00;4980295;28;20042;-79
2022/12/15 11:20:26;;;;;;;26.48;12.02;;;;;;;0.70;100.00;100766.38;4985710;28;20034;-80
2022/12/15 11:23:01;;;;;;;19.73;11.88;;;;;;;0.83;100.00;100762.72;4964995;28;20026;-80
2022/12/15 11:25:41;;;;;;;17.13;11.27;;;;;;;1.01;100.00;100769.97;4985177;28;20018;-79
2022/12/15 11:28:21;;;;;;;20.52;11.52;;;;;;;1.06;100.00;100765.47;4983338;28;20390;-79
2022/12/15 11:30:55;;;;;;;20.30;12.07;;;;;;;1.04;100.00;100765.78;4987263;28;20366;-79
2022/12/15 11:33:20;;;;;;;22.27;12.40;;;;;;;1.01;100.00;100764.47;4968300;28;20156;-79
2022/12/15 11:35:55;;;;;;;21.98;13.00;;;;;;;1.21;100.00;100776.06;4984244;28;20018;-80
2022/12/15 11:38:45;;;;;;;17.67;11.68;;;;;;;1.04;100.00;100765.78;4976733;28;20462;-79
2022/12/15 11:41:27;;;;;;;18.08;12.15;;;;;;;1.00;100.00;100765.59;4945605;28;20030;-80
2022/12/15 11:44:18;;;;;;;16.25;11.07;;;;;;;0.99;100.00;100775.00;4988360;28;20034;-79
2022/12/15 11:47:02;;;;;;;17.45;11.05;;;;;;;1.15;100.00;100774.56;4966773;28;20889;-80
2022/12/15 11:49:53;;;;;;;17.63;10.30;;;;;;;1.15;100.00;100778.16;4986112;28;20397;-79
2022/12/15 11:52:48;;;;;;;14.50;10.40;;;;;;;1.29;100.00;100771.75;4980965;28;20037;-80
2022/12/15 11:55:44;;;;;;;17.05;10.48;;;;;;;1.34;100.00;100777.91;4980842;28;20034;-80
2022/12/15 11:58:42;;;;;;;16.38;9.18;;;;;;;1.44;100.00;100776.00;4985003;28;20120;-79
2022/12/15 12:01:21;;;;;;;14.20;8.85;;;;;;;1.46;100.00;100782.03;4950155;28;20066;-79
2022/12/15 12:04:14;;;;;;;14.55;8.68;;;;;;;1.47;100.00;100783.63;4981678;28;20517;-79
2022/12/15 12:06:48;;;;;;;14.32;8.25;;;;;;;1.49;100.00;100776.66;4979963;28;20091;-80
2022/12/15 12:09:36;;;;;;;14.63;8.88;;;;;;;1.59;100.00;100789.38;4964079;28;20486;-80
2022/12/15 12:12:29;;;;;;;14.60;9.27;;;;;;;1.58;100.00;100782.22;4985171;28;21523;-79
2022/12/15 12:15:23;;;;;;;18.33;11.27;;;;;;;1.67;100.00;100785.81;4974277;28;20201;-79
2022/12/15 12:17:52;;;;;;;20.73;11.85;;;;;;;1.61;100.00;100776.88;4952616;28;20059;-79
2022/12/15 12:20:28;;;;;;;18.88;11.85;;;;;;;1.62;100.00;100774.91;4963842;28;20031;-79
2022/12/15 12:23:08;;;;;;;26.30;12.35;;;;;;;1.63;100.00;100776.56;4963823;28;20105;-79
2022/12/15 12:25:44;;;;;;;19.15;12.38;;;;;;;1.61;100.00;100767.78;4964331;28;20031;-79
2022/12/15 12:28:19;;;;;;;20.17;13.13;;;;;;;1.74;100.00;100777.88;4971204;28;20165;-81
2022/12/15 12:30:46;;;;;;;22.85;14.02;;;;;;;1.65;100.00;100771.53;4962247;28;20026;-79
2022/12/15 12:33:27;;;;;;;26.08;12.38;;;;;;;1.65;100.00;100763.25;4964860;28;20085;-80
2022/12/15 12:35:58;;;;;;;24.73;12.77;;;;;;;1.67;100.00;100766.50;4963283;28;20121;-80
2022/12/15 12:38:29;;;;;;;18.08;11.88;;;;;;;1.62;100.00;100759.19;4961332;28;20275;-79
2022/12/15 12:41:03;;;;;;;18.75;11.80;;;;;;;1.57;100.00;100766.81;4962531;28;20074;-80
2022/12/15 12:43:42;;;;;;;22.27;12.38;;;;;;;1.53;100.00;100755.59;4962115;28;20035;-79
2022/12/15 12:46:23;;;;;;;19.15;11.45;;;;;;;1.44;100.00;100751.19;4961457;28;20471;-81
2022/12/15 12:49:12;;;;;;;23.05;13.65;;;;;;;1.56;100.00;100737.56;4961430;28;20490;-80
2022/12/15 12:51:48;;;;;;;18.20;12.38;;;;;;;1.45;100.00;100742.56;4961737;28;20022;-80
2022/12/15 12:54:31;;;;;;;19.70;13.52;;;;;;;1.34;100.00;100742.06;4959455;28;20605;-80
2022/12/15 12:56:57;;;;;;;23.02;14.00;;;;;;;1.60;100.00;100744.06;4962090;28;20043;-80
2022/12/15 12:59:28;;;;;;;21.42;11.90;;;;;;;2.07;100.00;100751.78;4966019;28;20090;-80
2022/12/15 13:01:55;;;;;;;21.52;13.80;;;;;;;1.75;100.00;100742.81;4969958;28;20054;-83
2022/12/15 13:04:43;;;;;;;23.42;13.68;;;;;;;1.79;100.00;100741.03;4977439;28;20406;-83
2022/12/15 13:07:33;;;;;;;25.63;14.77;;;;;;;1.83;100.00;100734.56;4974635;28;20026;-83
2022/12/15 13:10:07;;;;;;;28.08;14.25;;;;;;;1.73;100.00;100726.59;4966633;28;20042;-82
2022/12/15 13:12:34;;;;;;;22.20;15.25;;;;;;;2.15;100.00;100732.50;4962755;28;20372;-81
2022/12/15 13:15:05;;;;;;;22.25;13.05;;;;;;;3.77;100.00;100728.25;4969758;28;20046;-78
2022/12/15 13:17:36;;;;;;;20.73;12.82;;;;;;;3.65;96.00;100731.75;4982758;28;20171;-81
2022/12/15 13:20:14;;;;;;;20.15;12.65;;;;;;;2.34;100.00;100723.03;4979097;28;20381;-79
2022/12/15 13:22:41;;;;;;;20.60;12.35;;;;;;;1.98;100.00;100726.94;4965313;28;20057;-79
2022/12/15 13:25:34;;;;;;;20.50;12.05;;;;;;;2.02;100.00;100722.38;4983296;28;20450;-80
2022/12/15 13:28:14;;;;;;;15.50;10.10;;;;;;;1.96;100.00;100732.81;4979674;28;20085;-79
2022/12/15 13:31:23;;;;;;;16.15;10.70;;;;;;;2.06;100.00;100737.19;4985006;28;20026;-79
2022/12/15 13:33:49;;;;;;;13.43;8.25;;;;;;;2.50;100.00;100721.41;4955990;28;20040;-79
2022/12/15 13:36:36;;;;;;;18.70;10.27;;;;;;;2.31;100.00;100723.72;4981926;28;20019;-80
2022/12/15 13:39:13;;;;;;;17.23;9.40;;;;;;;2.13;100.00;100723.72;4981459;28;20034;-79
2022/12/15 13:42:03;;;;;;;15.43;9.80;;;;;;;2.00;100.00;100708.09;4987456;28;20041;-79
2022/12/15 13:44:38;;;;;;;24.98;10.48;;;;;;;1.98;100.00;100699.31;4983309;28;20069;-80